createdAt,value
2023-02-15T00:00:45.993Z,12.77
2023-02-15T00:03:12.581Z,12.32
2023-02-15T00:05:39.242Z,11.93
2023-02-15T00:08:05.843Z,11.80
2023-02-15T00:10:32.380Z,12.63
2023-02-15T00:13:01.012Z,12.10
2023-02-15T00:15:27.603Z,12.95
2023-02-15T00:17:54.214Z,12.20
2023-02-15T00:20:20.959Z,12.07
2023-02-15T00:22:47.591Z,12.80
2023-02-15T00:25:14.367Z,12.63
2023-02-15T00:27:40.889Z,11.70
2023-02-15T00:30:08.081Z,12.60
2023-02-15T00:32:34.670Z,12.57
2023-02-15T00:35:03.336Z,12.05
2023-02-15T00:37:29.969Z,13.27
2023-02-15T00:39:56.588Z,12.48
2023-02-15T00:42:23.224Z,12.50
2023-02-15T00:44:49.919Z,12.93
2023-02-15T00:47:16.538Z,11.88
2023-02-15T00:49:43.151Z,11.65
2023-02-15T00:52:09.675Z,12.45
2023-02-15T00:54:36.332Z,12.60
2023-02-15T00:57:02.842Z,13.27
2023-02-15T00:59:29.409Z,13.77
2023-02-15T01:01:55.991Z,12.00
2023-02-15T01:04:22.723Z,11.95
2023-02-15T01:06:49.481Z,11.33
2023-02-15T01:09:16.096Z,11.40
2023-02-15T01:11:42.665Z,13.15
2023-02-15T01:14:09.284Z,13.05
2023-02-15T01:16:35.990Z,12.02
2023-02-15T01:19:02.553Z,11.63
2023-02-15T01:21:29.446Z,12.15
2023-02-15T01:23:56.015Z,11.77
2023-02-15T01:26:22.591Z,11.65
2023-02-15T01:28:49.180Z,12.18
2023-02-15T01:31:19.390Z,13.30
2023-02-15T01:33:47.084Z,13.23
2023-02-15T01:36:13.832Z,12.82
2023-02-15T01:38:40.654Z,11.73
2023-02-15T01:41:07.386Z,12.55
2023-02-15T01:43:45.722Z,11.47
2023-02-15T01:46:15.359Z,12.50
2023-02-15T01:48:47.354Z,11.98
2023-02-15T01:51:17.248Z,11.73
2023-02-15T01:53:59.986Z,12.85
2023-02-15T01:56:30.919Z,11.77
2023-02-15T01:59:04.034Z,11.50
2023-02-15T02:01:30.946Z,11.00
2023-02-15T02:04:08.598Z,11.13
2023-02-15T02:06:37.103Z,12.93
2023-02-15T02:09:03.853Z,12.03
2023-02-15T02:11:30.431Z,12.57
2023-02-15T02:13:57.402Z,13.07
2023-02-15T02:16:47.398Z,13.07
2023-02-15T02:19:38.719Z,12.00
2023-02-15T02:22:43.714Z,11.60
2023-02-15T02:25:47.965Z,12.38
2023-02-15T02:29:02.748Z,12.75
2023-02-15T02:32:14.241Z,13.10
2023-02-15T02:34:52.023Z,12.20
2023-02-15T02:37:24.552Z,11.87
2023-02-15T02:39:51.020Z,12.13
2023-02-15T02:42:33.956Z,11.45
2023-02-15T02:45:03.597Z,12.20
2023-02-15T02:47:52.504Z,12.63
2023-02-15T02:50:24.839Z,12.37
2023-02-15T02:52:54.374Z,11.57
2023-02-15T02:55:27.003Z,12.30
2023-02-15T02:58:08.607Z,12.43
2023-02-15T03:00:49.534Z,12.95
2023-02-15T03:03:30.405Z,12.13
2023-02-15T03:06:03.878Z,12.13
2023-02-15T03:08:41.877Z,12.60
2023-02-15T03:11:09.323Z,14.65
2023-02-15T03:13:36.547Z,13.95
2023-02-15T03:16:06.351Z,14.53
2023-02-15T03:18:39.958Z,13.85
2023-02-15T03:21:09.149Z,14.25
2023-02-15T03:23:38.142Z,14.52
2023-02-15T03:26:08.605Z,13.57
2023-02-15T03:28:43.571Z,11.50
2023-02-15T03:31:12.512Z,11.95
2023-02-15T03:33:45.843Z,12.65
2023-02-15T03:36:17.308Z,11.73
2023-02-15T03:38:52.770Z,13.43
2023-02-15T03:41:21.506Z,12.17
2023-02-15T03:43:54.287Z,13.27
2023-02-15T03:46:29.616Z,12.48
2023-02-15T03:49:04.629Z,13.35
2023-02-15T03:51:36.288Z,13.45
2023-02-15T03:54:07.246Z,12.70
2023-02-15T03:56:36.491Z,12.93
2023-02-15T03:59:03.785Z,15.15
2023-02-15T04:01:40.611Z,15.38
2023-02-15T04:04:19.560Z,16.63
2023-02-15T04:06:46.294Z,16.07
2023-02-15T04:09:13.609Z,18.50
2023-02-15T04:11:40.215Z,17.02
2023-02-15T04:14:06.943Z,16.95
2023-02-15T04:16:33.514Z,16.58
2023-02-15T04:19:00.105Z,18.60
2023-02-15T04:21:28.513Z,24.33
2023-02-15T04:23:55.073Z,23.90
2023-02-15T04:26:21.757Z,20.48
2023-02-15T04:28:48.371Z,18.13
2023-02-15T04:31:14.993Z,21.27
2023-02-15T04:33:41.593Z,19.92
2023-02-15T04:36:08.222Z,21.27
2023-02-15T04:38:34.806Z,19.83
2023-02-15T04:41:01.423Z,19.80
2023-02-15T04:43:27.967Z,20.00
2023-02-15T04:45:54.554Z,18.65
2023-02-15T04:48:21.159Z,18.25
2023-02-15T04:50:47.712Z,16.95
2023-02-15T04:53:14.386Z,16.13
2023-02-15T04:55:40.995Z,17.00
2023-02-15T04:58:07.593Z,16.65
2023-02-15T05:00:34.244Z,17.08
2023-02-15T05:03:01.053Z,15.75
2023-02-15T05:05:27.625Z,16.40
2023-02-15T05:07:54.313Z,19.73
2023-02-15T05:10:21.404Z,21.48
2023-02-15T05:12:48.152Z,16.55
2023-02-15T05:15:14.759Z,15.82
2023-02-15T05:17:41.455Z,16.10
2023-02-15T05:20:08.659Z,16.23
2023-02-15T05:22:35.388Z,17.15
2023-02-15T05:25:01.990Z,16.92
2023-02-15T05:27:28.552Z,18.55
2023-02-15T05:29:55.259Z,18.02
2023-02-15T05:32:22.047Z,19.07
2023-02-15T05:34:48.890Z,17.92
2023-02-15T05:37:15.449Z,17.13
2023-02-15T05:39:42.008Z,16.67
2023-02-15T05:42:08.631Z,15.05
2023-02-15T05:44:35.194Z,14.87
2023-02-15T05:47:01.762Z,13.93
2023-02-15T05:49:28.397Z,15.98
2023-02-15T05:51:54.977Z,15.38
2023-02-15T05:54:21.568Z,16.15
2023-02-15T05:56:48.390Z,15.80
2023-02-15T05:59:15.012Z,18.95
2023-02-15T06:01:41.611Z,18.50
2023-02-15T06:04:08.365Z,20.92
2023-02-15T06:06:34.936Z,21.30
2023-02-15T06:09:01.564Z,19.77
2023-02-15T06:11:28.198Z,21.55
2023-02-15T06:13:54.797Z,21.27
2023-02-15T06:16:21.632Z,24.30
2023-02-15T06:18:48.298Z,31.88
2023-02-15T06:21:15.010Z,32.60
2023-02-15T06:23:41.686Z,30.13
2023-02-15T06:26:08.260Z,29.02
2023-02-15T06:28:34.877Z,27.05
2023-02-15T06:31:04.895Z,25.77
2023-02-15T06:33:31.693Z,27.27
2023-02-15T06:35:58.447Z,28.38
2023-02-15T06:38:25.165Z,29.83
2023-02-15T06:40:52.219Z,30.05
2023-02-15T06:43:21.573Z,28.25
2023-02-15T06:46:00.376Z,27.77
2023-02-15T06:48:29.740Z,26.30
2023-02-15T06:50:56.923Z,27.75
2023-02-15T06:53:27.175Z,25.42
2023-02-15T06:55:54.184Z,24.63
2023-02-15T06:58:24.156Z,22.63
2023-02-15T07:00:52.992Z,23.92
2023-02-15T07:03:20.965Z,24.60
2023-02-15T07:05:48.258Z,25.17
2023-02-15T07:08:17.908Z,22.75
2023-02-15T07:10:49.878Z,24.53
2023-02-15T07:13:17.193Z,23.92
2023-02-15T07:15:46.528Z,25.98
2023-02-15T07:18:14.148Z,25.05
2023-02-15T07:20:41.864Z,25.85
2023-02-15T07:23:09.882Z,25.00
2023-02-15T07:25:37.122Z,24.65
2023-02-15T07:28:05.294Z,24.13
2023-02-15T07:30:32.550Z,25.10
2023-02-15T07:33:00.825Z,25.38
2023-02-15T07:35:28.706Z,22.90
2023-02-15T07:37:56.232Z,21.98
2023-02-15T07:40:24.697Z,22.00
2023-02-15T07:42:53.961Z,23.45
2023-02-15T07:45:21.681Z,19.90
2023-02-15T07:47:48.979Z,19.57
2023-02-15T07:50:15.842Z,19.48
2023-02-15T07:52:42.790Z,19.90
2023-02-15T07:55:09.865Z,22.08
2023-02-15T07:57:36.963Z,18.42
2023-02-15T08:00:06.060Z,19.17
2023-02-15T08:02:32.890Z,19.52
2023-02-15T08:05:03.514Z,18.42
2023-02-15T08:07:30.707Z,17.38
2023-02-15T08:09:57.914Z,17.77
2023-02-15T08:12:27.815Z,17.93
2023-02-15T08:14:54.688Z,19.17
2023-02-15T08:17:21.521Z,19.25
2023-02-15T08:19:48.537Z,17.58
2023-02-15T08:22:15.914Z,16.98
2023-02-15T08:24:42.456Z,17.07
2023-02-15T08:27:11.646Z,20.33
2023-02-15T08:29:39.517Z,17.08
2023-02-15T08:32:09.801Z,17.05
2023-02-15T08:34:39.700Z,15.48
2023-02-15T08:37:06.372Z,16.20
2023-02-15T08:39:33.242Z,15.27
2023-02-15T08:42:00.204Z,16.25
2023-02-15T08:44:27.073Z,16.00
2023-02-15T08:46:53.800Z,14.65
2023-02-15T08:49:22.456Z,16.53
2023-02-15T08:51:49.989Z,16.58
2023-02-15T08:54:21.108Z,15.98
2023-02-15T08:56:48.007Z,15.32
2023-02-15T08:59:23.502Z,16.60
2023-02-15T09:01:52.517Z,17.30
2023-02-15T09:04:20.260Z,17.98
2023-02-15T09:06:49.327Z,18.17
2023-02-15T09:09:17.752Z,17.05
2023-02-15T09:11:48.906Z,18.27
2023-02-15T09:14:19.016Z,17.07
2023-02-15T09:16:47.630Z,17.88
2023-02-15T09:19:14.439Z,17.80
2023-02-15T09:21:41.386Z,17.85
2023-02-15T09:24:12.383Z,16.08
2023-02-15T09:26:43.059Z,17.40
2023-02-15T09:29:11.598Z,18.38
2023-02-15T09:31:44.371Z,16.60
2023-02-15T09:34:12.224Z,18.95
2023-02-15T09:36:41.126Z,17.95
2023-02-15T09:39:24.986Z,16.23
2023-02-15T09:42:11.919Z,16.02
2023-02-15T09:44:50.586Z,16.55
2023-02-15T09:47:22.872Z,17.25
2023-02-15T09:50:21.666Z,16.75
2023-02-15T09:53:34.234Z,17.27
2023-02-15T09:56:14.223Z,16.77
2023-02-15T09:58:46.438Z,17.42
2023-02-15T10:01:22.074Z,16.40
2023-02-15T10:04:10.059Z,17.88
2023-02-15T10:06:54.056Z,17.20
2023-02-15T10:09:26.225Z,17.27
2023-02-15T10:12:33.358Z,19.20
2023-02-15T10:15:33.078Z,18.25
2023-02-15T10:18:33.262Z,18.08
2023-02-15T10:21:15.073Z,17.73
2023-02-15T10:24:16.567Z,18.38
2023-02-15T10:26:49.146Z,18.30
2023-02-15T10:29:37.568Z,17.15
2023-02-15T10:32:22.581Z,18.02
2023-02-15T10:35:02.695Z,17.60
2023-02-15T10:37:44.129Z,16.08
2023-02-15T10:40:29.480Z,16.48
2023-02-15T10:43:00.135Z,18.38
2023-02-15T10:45:41.671Z,17.80
2023-02-15T10:48:40.760Z,18.13
2023-02-15T10:51:16.050Z,17.95
2023-02-15T10:53:42.640Z,18.20
2023-02-15T10:56:14.099Z,17.67
2023-02-15T10:59:14.647Z,17.90
2023-02-15T11:02:20.544Z,16.50
2023-02-15T11:05:12.699Z,18.58
2023-02-15T11:07:45.956Z,17.10
2023-02-15T11:10:25.897Z,16.05
2023-02-15T11:12:54.141Z,17.40
2023-02-15T11:15:38.012Z,17.80
2023-02-15T11:18:13.124Z,16.20
2023-02-15T11:20:46.029Z,17.08
2023-02-15T11:23:17.943Z,17.35
2023-02-15T11:25:53.258Z,18.38
2023-02-15T11:28:30.830Z,17.07
2023-02-15T11:31:03.225Z,17.63
2023-02-15T11:33:40.782Z,17.17
2023-02-15T11:36:16.847Z,16.77
2023-02-15T11:38:43.876Z,16.20
2023-02-15T11:41:14.924Z,17.97
2023-02-15T11:43:48.054Z,18.73
2023-02-15T11:46:14.832Z,17.50
2023-02-15T11:48:45.134Z,17.25
2023-02-15T11:51:24.426Z,12.13
2023-02-15T11:53:52.635Z,13.93
2023-02-15T11:56:28.404Z,13.52
2023-02-15T11:59:07.338Z,12.10
2023-02-15T12:01:33.825Z,12.38
2023-02-15T12:04:03.235Z,12.43
2023-02-15T12:06:33.634Z,12.00
2023-02-15T12:09:26.188Z,10.93
2023-02-15T12:11:53.940Z,12.00
2023-02-15T12:14:20.586Z,11.15
2023-02-15T12:16:54.401Z,11.90
2023-02-15T12:19:41.140Z,14.63
2023-02-15T12:22:24.251Z,14.40
2023-02-15T12:24:53.812Z,14.95
2023-02-15T12:27:27.901Z,15.38
2023-02-15T12:30:01.530Z,14.13
2023-02-15T12:32:52.290Z,15.67
2023-02-15T12:35:29.865Z,15.60
2023-02-15T12:38:01.295Z,15.57
2023-02-15T12:40:31.942Z,14.82
2023-02-15T12:42:59.168Z,13.68
2023-02-15T12:45:25.688Z,14.50
2023-02-15T12:48:19.634Z,15.15
2023-02-15T12:50:57.763Z,14.60
2023-02-15T12:53:35.808Z,13.82
2023-02-15T12:56:08.343Z,13.57
2023-02-15T12:58:37.368Z,13.83
2023-02-15T13:01:10.435Z,13.45
2023-02-15T13:03:40.392Z,13.82
2023-02-15T13:06:07.413Z,13.95
2023-02-15T13:08:48.396Z,14.68
2023-02-15T13:11:23.338Z,15.23
2023-02-15T13:14:18.852Z,14.55
2023-02-15T13:16:48.177Z,14.50
2023-02-15T13:19:23.857Z,15.40
2023-02-15T13:21:53.978Z,15.45
2023-02-15T13:24:27.002Z,14.23
2023-02-15T13:27:12.919Z,14.57
2023-02-15T13:29:47.164Z,14.23
2023-02-15T13:32:27.331Z,15.02
2023-02-15T13:35:06.068Z,13.88
2023-02-15T13:37:57.943Z,12.97
2023-02-15T13:40:59.690Z,14.50
2023-02-15T13:43:45.990Z,15.35
2023-02-15T13:46:47.070Z,13.88
2023-02-15T13:49:35.589Z,13.85
2023-02-15T13:52:22.312Z,13.63
2023-02-15T13:55:07.441Z,13.85
2023-02-15T13:57:53.798Z,14.18
2023-02-15T14:00:39.852Z,14.10
2023-02-15T14:03:20.945Z,14.40
2023-02-15T14:06:03.962Z,14.13
2023-02-15T14:09:01.400Z,14.07
2023-02-15T14:11:54.345Z,14.32
2023-02-15T14:14:40.839Z,14.05
2023-02-15T14:17:25.892Z,14.40
2023-02-15T14:19:58.405Z,14.93
2023-02-15T14:22:41.485Z,14.38
2023-02-15T14:25:23.160Z,14.55
2023-02-15T14:28:17.627Z,15.63
2023-02-15T14:30:49.715Z,15.63
2023-02-15T14:33:35.959Z,14.83
2023-02-15T14:36:07.361Z,15.18
2023-02-15T14:38:48.112Z,15.60
2023-02-15T14:41:33.249Z,16.60
2023-02-15T14:44:29.500Z,15.90
2023-02-15T14:47:17.059Z,16.00
2023-02-15T14:49:43.663Z,15.40
2023-02-15T14:52:14.000Z,16.50
2023-02-15T14:54:40.511Z,15.05
2023-02-15T14:57:07.177Z,15.82
2023-02-15T14:59:44.525Z,15.70
2023-02-15T15:02:22.500Z,14.95
2023-02-15T15:05:09.885Z,14.50
2023-02-15T15:08:06.325Z,15.77
2023-02-15T15:10:45.949Z,14.85
2023-02-15T15:13:39.948Z,14.97
2023-02-15T15:16:29.362Z,13.63
2023-02-15T15:18:56.147Z,14.57
2023-02-15T15:21:47.554Z,14.10
2023-02-15T15:24:38.831Z,15.93
2023-02-15T15:27:43.998Z,14.33
2023-02-15T15:30:19.842Z,15.40
2023-02-15T15:32:55.459Z,15.82
2023-02-15T15:35:34.264Z,16.23
2023-02-15T15:38:32.164Z,15.52
2023-02-15T15:41:27.008Z,14.87
2023-02-15T15:44:22.534Z,15.20
2023-02-15T15:47:03.050Z,16.48
2023-02-15T15:49:33.473Z,15.55
2023-02-15T15:52:13.326Z,15.55
2023-02-15T15:54:43.188Z,15.43
2023-02-15T15:57:39.272Z,16.05
2023-02-15T16:00:22.081Z,17.17
2023-02-15T16:02:53.174Z,17.83
2023-02-15T16:05:19.949Z,17.35
2023-02-15T16:07:46.737Z,17.10
2023-02-15T16:10:32.501Z,21.08
2023-02-15T16:12:59.751Z,25.35
2023-02-15T16:15:37.348Z,29.42
2023-02-15T16:18:04.865Z,30.48
2023-02-15T16:20:37.213Z,32.57
2023-02-15T16:23:29.667Z,31.42
2023-02-15T16:26:17.080Z,30.23
2023-02-15T16:28:54.318Z,29.75
2023-02-15T16:31:22.662Z,27.00
2023-02-15T16:33:53.190Z,26.40
2023-02-15T16:36:28.117Z,26.73
2023-02-15T16:38:57.552Z,24.38
2023-02-15T16:41:30.669Z,24.88
2023-02-15T16:44:00.859Z,24.02
2023-02-15T16:46:42.016Z,27.93
2023-02-15T16:49:20.174Z,26.55
2023-02-15T16:52:02.187Z,26.45
2023-02-15T16:54:30.588Z,25.40
2023-02-15T16:56:58.222Z,26.73
2023-02-15T16:59:39.790Z,25.27
2023-02-15T17:02:49.382Z,26.42
2023-02-15T17:05:13.582Z,25.05
2023-02-15T17:07:41.555Z,29.65
2023-02-15T17:10:41.895Z,30.45
2023-02-15T17:13:18.280Z,27.97
2023-02-15T17:16:06.149Z,28.63
2023-02-15T17:18:46.326Z,34.08
2023-02-15T17:21:23.948Z,32.40
2023-02-15T17:23:52.225Z,33.10
2023-02-15T17:26:31.887Z,34.00
2023-02-15T17:29:03.452Z,30.13
2023-02-15T17:31:34.094Z,30.20
2023-02-15T17:34:02.186Z,27.50
2023-02-15T17:36:31.484Z,28.88
2023-02-15T17:38:57.987Z,26.33
2023-02-15T17:41:31.757Z,27.27
2023-02-15T17:43:58.438Z,32.53
2023-02-15T17:46:26.071Z,31.48
2023-02-15T17:48:54.825Z,33.85
2023-02-15T17:51:22.454Z,39.50
2023-02-15T17:53:49.974Z,40.25
2023-02-15T17:56:16.572Z,43.95
2023-02-15T17:58:43.105Z,43.08
2023-02-15T18:01:18.764Z,42.88
2023-02-15T18:03:50.409Z,43.87
2023-02-15T18:06:17.078Z,41.13
2023-02-15T18:08:43.871Z,42.92
2023-02-15T18:11:10.660Z,44.28
2023-02-15T18:13:37.254Z,44.35
2023-02-15T18:16:04.143Z,43.33
2023-02-15T18:18:30.817Z,45.28
2023-02-15T18:20:57.400Z,46.88
2023-02-15T18:23:24.098Z,46.53
2023-02-15T18:25:50.628Z,48.38
2023-02-15T18:28:17.224Z,48.17
2023-02-15T18:30:46.343Z,52.95
2023-02-15T18:33:46.434Z,50.42
2023-02-15T18:36:19.093Z,44.92
2023-02-15T18:38:45.902Z,42.35
2023-02-15T18:41:17.335Z,43.83
2023-02-15T18:43:44.139Z,51.22
2023-02-15T18:46:10.875Z,50.15
2023-02-15T18:48:37.735Z,48.35
2023-02-15T18:51:04.890Z,51.55
2023-02-15T18:53:31.785Z,51.33
2023-02-15T18:55:59.091Z,48.83
2023-02-15T18:58:25.650Z,51.60
2023-02-15T19:00:52.284Z,54.95
2023-02-15T19:03:18.931Z,52.67
2023-02-15T19:05:47.660Z,51.97
2023-02-15T19:08:23.243Z,52.28
2023-02-15T19:10:51.147Z,50.20
2023-02-15T19:13:17.900Z,50.08
2023-02-15T19:15:44.778Z,49.60
2023-02-15T19:18:11.590Z,49.87
2023-02-15T19:20:42.004Z,47.03
2023-02-15T19:23:20.246Z,46.88
2023-02-15T19:25:48.652Z,42.78
2023-02-15T19:28:34.480Z,40.05
2023-02-15T19:31:01.328Z,39.17
2023-02-15T19:33:28.039Z,38.38
2023-02-15T19:35:55.960Z,39.20
2023-02-15T19:38:26.116Z,39.05
2023-02-15T19:40:53.308Z,37.42
2023-02-15T19:43:23.978Z,35.93
2023-02-15T19:45:52.464Z,35.75
2023-02-15T19:48:19.811Z,34.95
2023-02-15T19:50:47.329Z,33.10
2023-02-15T19:53:20.128Z,32.78
2023-02-15T19:55:46.733Z,32.00
2023-02-15T19:58:13.415Z,30.38
2023-02-15T20:00:40.471Z,26.98
2023-02-15T20:03:07.093Z,25.77
2023-02-15T20:05:37.229Z,26.00
2023-02-15T20:08:06.261Z,24.60
2023-02-15T20:10:32.777Z,21.58
2023-02-15T20:12:59.397Z,22.00
2023-02-15T20:15:32.170Z,22.45
2023-02-15T20:18:00.642Z,22.83
2023-02-15T20:20:33.740Z,22.33
2023-02-15T20:23:03.136Z,22.88
2023-02-15T20:25:31.615Z,24.17
2023-02-15T20:27:58.173Z,24.58
2023-02-15T20:30:27.700Z,24.40
2023-02-15T20:32:54.982Z,24.20
2023-02-15T20:35:23.923Z,25.67
2023-02-15T20:37:55.930Z,34.95
2023-02-15T20:40:34.386Z,35.70
2023-02-15T20:43:01.584Z,33.50
2023-02-15T20:45:32.718Z,34.60
2023-02-15T20:48:00.043Z,36.22
2023-02-15T20:50:30.119Z,38.33
2023-02-15T20:52:59.259Z,34.58
2023-02-15T20:55:31.224Z,33.08
2023-02-15T20:57:59.211Z,32.17
2023-02-15T21:00:28.627Z,33.30
2023-02-15T21:02:58.489Z,37.47
2023-02-15T21:05:30.695Z,44.92
2023-02-15T21:07:58.139Z,49.05
2023-02-15T21:10:27.771Z,47.17
2023-02-15T21:12:54.578Z,41.83
2023-02-15T21:15:28.167Z,47.10
2023-02-15T21:17:55.483Z,44.78
2023-02-15T21:20:22.496Z,39.08
2023-02-15T21:22:50.260Z,35.87
2023-02-15T21:25:25.822Z,39.53
2023-02-15T21:27:52.453Z,38.03
2023-02-15T21:30:20.914Z,34.53
2023-02-15T21:32:47.697Z,33.92
2023-02-15T21:35:15.474Z,33.57
2023-02-15T21:37:44.326Z,32.88
2023-02-15T21:40:14.175Z,33.00
2023-02-15T21:42:41.123Z,33.15
2023-02-15T21:45:16.119Z,33.05
2023-02-15T21:47:43.041Z,34.37
2023-02-15T21:50:21.940Z,35.42
2023-02-15T21:52:48.697Z,37.55
2023-02-15T21:55:15.910Z,38.58
2023-02-15T21:57:42.571Z,37.75
2023-02-15T22:00:21.538Z,39.83
2023-02-15T22:02:51.396Z,36.22
2023-02-15T22:05:24.500Z,35.30
2023-02-15T22:07:51.043Z,35.42
2023-02-15T22:10:17.846Z,36.10
2023-02-15T22:12:44.863Z,34.27
2023-02-15T22:15:23.890Z,32.15
2023-02-15T22:17:51.371Z,31.23
2023-02-15T22:20:22.165Z,31.73
2023-02-15T22:22:50.385Z,33.00
2023-02-15T22:25:23.139Z,32.90
2023-02-15T22:27:51.338Z,30.92
2023-02-15T22:30:35.830Z,31.23
2023-02-15T22:33:03.873Z,30.98
2023-02-15T22:35:36.010Z,29.15
2023-02-15T22:38:02.770Z,29.13
2023-02-15T22:40:33.400Z,29.85
2023-02-15T22:43:02.591Z,31.55
2023-02-15T22:45:29.288Z,29.67
2023-02-15T22:47:58.738Z,30.80
2023-02-15T22:50:31.178Z,30.87
2023-02-15T22:53:00.810Z,31.50
2023-02-15T22:55:31.546Z,31.02
2023-02-15T22:57:58.342Z,27.45
2023-02-15T23:00:28.846Z,29.20
2023-02-15T23:02:55.839Z,28.80
2023-02-15T23:05:27.952Z,29.70
2023-02-15T23:07:54.766Z,28.30
2023-02-15T23:10:24.205Z,28.23
2023-02-15T23:12:54.507Z,27.27
2023-02-15T23:15:21.290Z,30.37
2023-02-15T23:17:47.922Z,27.52
2023-02-15T23:20:17.517Z,28.15
2023-02-15T23:22:44.546Z,27.52
2023-02-15T23:25:12.229Z,29.85
2023-02-15T23:27:39.128Z,29.93
2023-02-15T23:30:17.478Z,29.90
2023-02-15T23:32:44.094Z,29.17
2023-02-15T23:35:19.426Z,28.63
2023-02-15T23:37:46.306Z,26.55
2023-02-15T23:40:18.798Z,27.10
2023-02-15T23:42:45.345Z,29.00
2023-02-15T23:45:23.588Z,27.23
2023-02-15T23:47:50.566Z,28.15
2023-02-15T23:50:26.172Z,27.00
2023-02-15T23:52:54.166Z,27.53
2023-02-15T23:55:22.402Z,27.65
2023-02-15T23:57:49.814Z,27.70
